Time;durP1;ratioP1;P1;durP2;ratioP2;P2;SDS_P1;SDS_P2;PMS_P1;PMS_P2;Temp;Humidity;BMP_temperature;BMP_pressure;BME280_temperature;BME280_humidity;BME280_pressure;Samples;Min_cycle;Max_cycle;Signal;HPM_P1;HPM_P2
2022/04/15 00:02:09;;;;;;;55.63;26.50;;;;;;;11.81;56.53;100024.63;4200583;28;20240;-75
2022/04/15 00:04:36;;;;;;;57.27;26.27;;;;;;;11.82;56.05;100026.28;4190228;28;20428;-73
2022/04/15 00:07:03;;;;;;;58.40;27.10;;;;;;;11.89;55.86;100031.81;4182141;28;23702;-75
2022/04/15 00:09:33;;;;;;;52.33;24.30;;;;;;;11.88;55.44;100032.00;4200636;28;20623;-74
2022/04/15 00:12:06;;;;;;;54.17;26.27;;;;;;;11.86;55.49;100040.13;4191076;28;21147;-74
2022/04/15 00:14:34;;;;;;;56.53;24.30;;;;;;;11.84;55.42;100040.28;4185031;28;22434;-74
2022/04/15 00:17:02;;;;;;;55.73;24.47;;;;;;;11.88;55.44;100040.00;4216065;28;22490;-74
2022/04/15 00:19:28;;;;;;;55.20;24.57;;;;;;;11.83;54.59;100038.63;4180829;28;20259;-73
2022/04/15 00:21:55;;;;;;;49.80;23.73;;;;;;;11.83;54.51;100043.13;4191884;28;25418;-76
2022/04/15 00:24:22;;;;;;;53.50;23.67;;;;;;;11.59;55.07;100041.22;4208312;28;20420;-73
2022/04/15 00:26:48;;;;;;;50.53;24.00;;;;;;;11.68;55.06;100048.22;4201140;28;21212;-76
2022/04/15 00:29:17;;;;;;;53.73;24.30;;;;;;;11.54;54.99;100048.84;4189367;28;21248;-77
2022/04/15 00:31:43;;;;;;;48.23;22.90;;;;;;;11.55;54.86;100037.22;4202612;28;21253;-76
2022/04/15 00:34:10;;;;;;;43.60;22.17;;;;;;;11.46;55.66;100040.84;4187600;28;20319;-75
2022/04/15 00:36:37;;;;;;;48.90;23.73;;;;;;;11.59;54.68;100044.72;4197590;28;20475;-76
2022/04/15 00:39:03;;;;;;;47.43;22.00;;;;;;;11.60;54.55;100048.22;4218981;28;21715;-75
2022/04/15 00:41:30;;;;;;;47.97;22.93;;;;;;;11.62;54.79;100052.38;4195994;28;20311;-76
2022/04/15 00:43:58;;;;;;;46.93;22.83;;;;;;;11.61;54.76;100057.84;4192797;28;21069;-77
2022/04/15 00:46:24;;;;;;;44.63;21.90;;;;;;;11.57;54.90;100052.03;4194853;28;20891;-75
2022/04/15 00:48:51;;;;;;;52.27;22.97;;;;;;;11.46;55.03;100046.16;4186529;28;20237;-77
2022/04/15 00:51:21;;;;;;;49.87;23.27;;;;;;;11.48;55.48;100050.34;4185413;28;20840;-75
2022/04/15 00:53:48;;;;;;;43.33;21.63;;;;;;;11.56;55.66;100049.53;4194659;28;22167;-74
2022/04/15 00:56:16;;;;;;;48.43;21.97;;;;;;;11.46;56.41;100051.50;4190675;28;20240;-75
2022/04/15 00:58:44;;;;;;;45.70;21.60;;;;;;;11.38;56.55;100050.47;4221268;28;21519;-76
2022/04/15 01:01:11;;;;;;;45.00;20.70;;;;;;;11.45;57.02;100060.47;4186785;28;20229;-75
2022/04/15 01:03:40;;;;;;;42.27;19.90;;;;;;;11.45;57.50;100049.81;4179649;28;20228;-74
2022/04/15 01:06:13;;;;;;;48.87;21.53;;;;;;;11.32;58.08;100047.59;4188980;28;20237;-75
2022/04/15 01:08:41;;;;;;;45.33;21.07;;;;;;;11.36;58.49;100041.78;4190744;28;21726;-76
2022/04/15 01:11:10;;;;;;;39.57;19.97;;;;;;;11.46;58.68;100046.16;4199826;28;20392;-76
2022/04/15 01:13:38;;;;;;;43.80;20.20;;;;;;;11.33;58.33;100050.13;4190498;28;20487;-76
2022/04/15 01:16:07;;;;;;;40.80;20.20;;;;;;;11.36;59.52;100049.78;4204522;28;20277;-74
2022/04/15 01:18:33;;;;;;;48.33;21.33;;;;;;;11.24;60.26;100052.88;4194320;28;20324;-75
2022/04/15 01:21:00;;;;;;;36.77;19.57;;;;;;;11.31;60.44;100052.09;4172558;28;20283;-74
2022/04/15 01:23:28;;;;;;;39.50;20.00;;;;;;;11.30;61.61;100053.06;4194545;28;20229;-75
2022/04/15 01:25:54;;;;;;;41.17;20.37;;;;;;;11.28;61.89;100049.72;4185057;28;20271;-76
2022/04/15 01:28:21;;;;;;;44.33;20.63;;;;;;;11.09;63.99;100045.47;4200770;28;20354;-75
2022/04/15 01:30:48;;;;;;;35.80;19.67;;;;;;;11.10;64.82;100047.16;4193003;28;20279;-75
2022/04/15 01:33:15;;;;;;;34.93;19.47;;;;;;;10.97;66.38;100042.25;4198614;28;20283;-75
2022/04/15 01:35:47;;;;;;;39.47;20.80;;;;;;;10.98;67.42;100038.59;4201394;28;21428;-75
2022/04/15 01:38:17;;;;;;;38.60;19.90;;;;;;;10.96;67.93;100048.56;4190561;28;20313;-75
2022/04/15 01:40:44;;;;;;;37.47;19.97;;;;;;;10.99;68.19;100044.75;4197534;28;20534;-77
2022/04/15 01:43:12;;;;;;;38.70;19.87;;;;;;;10.97;69.33;100047.56;4186385;28;20241;-75
2022/04/15 01:45:38;;;;;;;38.87;20.40;;;;;;;10.96;69.37;100045.91;4204882;28;20411;-75
2022/04/15 01:48:06;;;;;;;39.03;20.40;;;;;;;10.93;70.19;100045.38;4208523;28;20241;-76
2022/04/15 01:50:34;;;;;;;35.27;19.70;;;;;;;10.92;69.99;100043.72;4205178;28;20248;-75
2022/04/15 01:53:00;;;;;;;35.63;19.67;;;;;;;10.93;70.33;100040.06;4203907;28;21412;-76
2022/04/15 01:55:28;;;;;;;38.03;20.60;;;;;;;10.87;70.32;100046.84;4202278;28;21589;-74
2022/04/15 01:57:55;;;;;;;38.73;21.77;;;;;;;10.83;71.56;100052.63;4194988;28;20241;-75
2022/04/15 02:00:22;;;;;;;41.37;20.87;;;;;;;10.66;72.41;100043.72;4189979;28;22315;-76
2022/04/15 02:02:49;;;;;;;38.67;20.30;;;;;;;10.69;72.84;100059.34;4224893;28;20326;-74
2022/04/15 02:05:16;;;;;;;36.87;20.03;;;;;;;10.80;72.77;100052.97;4191027;28;20374;-76
2022/04/15 02:07:42;;;;;;;38.30;19.80;;;;;;;10.79;72.86;100060.09;4206860;28;20236;-74
2022/04/15 02:10:10;;;;;;;37.40;20.53;;;;;;;10.74;73.65;100051.75;4205732;28;20329;-75
2022/04/15 02:12:36;;;;;;;38.80;20.00;;;;;;;10.69;73.73;100048.72;4209417;28;20312;-76
2022/04/15 02:15:03;;;;;;;33.87;19.17;;;;;;;10.71;73.21;100055.53;4237492;28;20574;-77
2022/04/15 02:17:30;;;;;;;32.30;18.47;;;;;;;10.85;72.93;100055.97;4215413;28;25107;-76
2022/04/15 02:19:57;;;;;;;38.17;19.90;;;;;;;10.88;73.24;100053.81;4206714;28;20304;-76
2022/04/15 02:22:23;;;;;;;36.70;19.83;;;;;;;10.95;73.24;100062.84;4213061;28;20464;-76
2022/04/15 02:24:50;;;;;;;36.83;19.57;;;;;;;10.87;72.72;100052.16;4212759;28;22991;-76
2022/04/15 02:27:17;;;;;;;39.57;19.67;;;;;;;10.87;73.49;100052.16;4196550;28;26569;-74
2022/04/15 02:29:43;;;;;;;31.33;19.03;;;;;;;10.88;73.19;100059.16;4202778;28;20233;-75
2022/04/15 02:32:10;;;;;;;34.37;18.20;;;;;;;10.82;73.38;100059.78;4204261;28;20239;-76
2022/04/15 02:34:36;;;;;;;33.77;19.30;;;;;;;10.97;73.28;100068.88;4176739;28;25768;-74
2022/04/15 02:37:03;;;;;;;32.93;18.60;;;;;;;11.07;72.67;100071.41;4189448;28;20631;-74
2022/04/15 02:39:30;;;;;;;33.90;18.80;;;;;;;11.09;73.35;100072.09;4183098;28;22644;-74
2022/04/15 02:41:56;;;;;;;35.97;19.70;;;;;;;11.14;72.59;100082.28;4192415;28;20756;-73
2022/04/15 02:44:23;;;;;;;33.97;19.40;;;;;;;11.01;72.79;100085.38;4202465;28;20244;-75
2022/04/15 02:46:51;;;;;;;32.60;18.70;;;;;;;10.92;73.57;100081.81;4200509;28;20268;-74
2022/04/15 02:49:18;;;;;;;33.33;18.30;;;;;;;11.05;73.21;100080.56;4182351;28;20220;-75
2022/04/15 02:51:44;;;;;;;33.93;17.77;;;;;;;11.11;73.14;100079.94;4199212;28;20231;-74
2022/04/15 02:54:11;;;;;;;35.63;19.90;;;;;;;11.06;73.89;100077.75;4191419;28;20655;-74
2022/04/15 02:56:38;;;;;;;33.30;18.37;;;;;;;11.15;73.78;100070.66;4211104;28;20283;-75
2022/04/15 02:59:05;;;;;;;30.50;17.93;;;;;;;11.11;73.24;100067.47;4177059;28;21495;-76
2022/04/15 03:01:32;;;;;;;34.80;19.33;;;;;;;11.08;73.51;100058.97;4189545;28;20240;-73
2022/04/15 03:03:59;;;;;;;29.00;18.23;;;;;;;11.02;73.71;100070.22;4193134;28;21220;-75
2022/04/15 03:06:25;;;;;;;30.67;18.20;;;;;;;11.08;73.46;100064.28;4195215;28;20615;-74
2022/04/15 03:08:52;;;;;;;32.37;18.43;;;;;;;11.15;73.93;100065.31;4198746;28;20235;-74
2022/04/15 03:11:18;;;;;;;34.23;19.57;;;;;;;11.12;74.18;100071.81;4210826;28;21288;-73
2022/04/15 03:13:44;;;;;;;32.37;18.73;;;;;;;11.07;74.13;100078.56;4207893;28;21349;-74
2022/04/15 03:16:11;;;;;;;33.10;18.03;;;;;;;11.11;74.02;100074.63;4209383;28;20395;-76
2022/04/15 03:18:38;;;;;;;27.57;17.03;;;;;;;11.18;74.98;100070.31;4211976;28;20944;-73
2022/04/15 03:21:05;;;;;;;30.60;18.30;;;;;;;11.11;74.71;100069.28;4199093;28;20353;-73
2022/04/15 03:23:32;;;;;;;30.17;16.63;;;;;;;11.15;74.72;100071.47;4213060;28;20365;-74
2022/04/15 03:25:58;;;;;;;31.57;17.87;;;;;;;11.31;74.15;100081.41;4202661;28;21176;-74
2022/04/15 03:28:25;;;;;;;27.97;16.93;;;;;;;11.20;74.23;100095.81;4190040;28;20230;-75
2022/04/15 03:30:52;;;;;;;29.20;16.40;;;;;;;11.17;74.74;100088.13;4199043;28;23754;-74
2022/04/15 03:33:18;;;;;;;29.70;17.43;;;;;;;10.87;75.77;100094.75;4194140;28;21008;-75
2022/04/15 03:35:45;;;;;;;32.63;18.27;;;;;;;10.65;77.12;100087.25;4211716;28;20239;-75
2022/04/15 03:38:11;;;;;;;36.57;17.53;;;;;;;10.49;78.50;100080.81;4208479;28;22903;-74
2022/04/15 03:40:38;;;;;;;28.43;17.33;;;;;;;10.47;78.65;100080.16;4194617;28;20236;-73
2022/04/15 03:43:05;;;;;;;27.90;16.07;;;;;;;10.55;78.53;100090.84;4205712;28;20237;-74
2022/04/15 03:45:32;;;;;;;27.47;16.23;;;;;;;10.62;78.46;100076.94;4210197;28;20334;-73
2022/04/15 03:47:59;;;;;;;29.50;16.63;;;;;;;10.47;79.45;100085.47;4201838;28;20826;-74
2022/04/15 03:50:26;;;;;;;27.27;16.30;;;;;;;10.37;80.20;100082.03;4197573;28;20235;-73
2022/04/15 03:52:54;;;;;;;31.67;16.47;;;;;;;10.47;80.03;100077.47;4213513;28;20299;-73
2022/04/15 03:55:22;;;;;;;31.60;16.63;;;;;;;10.59;79.71;100087.91;4190446;28;22931;-74
2022/04/15 03:57:49;;;;;;;28.80;15.50;;;;;;;10.69;79.95;100080.66;4201406;28;21406;-72
2022/04/15 04:00:20;;;;;;;25.13;15.10;;;;;;;10.65;80.04;100076.63;4198360;28;20385;-76
2022/04/15 04:02:49;;;;;;;24.87;14.63;;;;;;;10.73;79.89;100072.19;4204475;28;21662;-74
2022/04/15 04:05:16;;;;;;;22.80;14.23;;;;;;;10.78;80.01;100085.88;4197056;28;20386;-72
2022/04/15 04:07:43;;;;;;;26.87;15.50;;;;;;;10.70;79.99;100083.16;4203416;28;20311;-72
2022/04/15 04:10:14;;;;;;;31.03;17.67;;;;;;;10.83;80.25;100085.41;4202596;28;20231;-74
2022/04/15 04:12:42;;;;;;;29.57;16.73;;;;;;;10.85;80.04;100094.06;4197436;28;22822;-73
2022/04/15 04:15:10;;;;;;;25.87;13.77;;;;;;;10.90;79.75;100093.63;4190673;28;20742;-74
2022/04/15 04:17:37;;;;;;;24.63;14.63;;;;;;;10.75;80.33;100096.00;4194648;28;21255;-75
2022/04/15 04:20:07;;;;;;;27.27;14.47;;;;;;;10.81;80.42;100087.38;4209660;28;20393;-72
2022/04/15 04:22:36;;;;;;;23.67;14.00;;;;;;;10.92;80.40;100099.63;4213325;28;20339;-74
2022/04/15 04:25:04;;;;;;;27.67;14.50;;;;;;;10.98;80.08;100107.81;4192375;28;20239;-75
2022/04/15 04:27:30;;;;;;;28.83;14.40;;;;;;;10.97;80.61;100092.81;4208303;28;20244;-73
2022/04/15 04:29:57;;;;;;;23.80;13.93;;;;;;;10.99;80.12;100098.00;4228254;28;20583;-73
2022/04/15 04:32:24;;;;;;;26.73;14.93;;;;;;;10.94;80.63;100111.78;4203248;28;20749;-73
2022/04/15 04:34:50;;;;;;;26.13;14.97;;;;;;;11.06;80.46;100111.53;4213753;28;21226;-73
2022/04/15 04:37:17;;;;;;;29.10;15.43;;;;;;;11.02;80.31;100110.16;4216622;28;20658;-73
2022/04/15 04:39:44;;;;;;;24.33;14.20;;;;;;;10.96;80.98;100109.81;4217136;28;22525;-73
2022/04/15 04:42:11;;;;;;;25.87;14.00;;;;;;;11.02;80.93;100110.16;4198905;28;21240;-74
2022/04/15 04:44:38;;;;;;;27.20;15.03;;;;;;;10.98;81.05;100113.16;4209550;28;20288;-73
2022/04/15 04:47:08;;;;;;;26.30;14.70;;;;;;;10.83;82.03;100113.84;4216328;28;20643;-73
2022/04/15 04:49:35;;;;;;;26.63;15.07;;;;;;;10.72;82.93;100122.91;4202538;28;20233;-74
2022/04/15 04:52:02;;;;;;;29.80;13.90;;;;;;;10.68;83.52;100118.91;4198645;28;20754;-74
2022/04/15 04:54:30;;;;;;;26.93;14.97;;;;;;;10.94;82.66;100122.44;4189343;28;20241;-73
2022/04/15 04:56:56;;;;;;;26.70;14.73;;;;;;;10.82;83.05;100121.00;4209323;28;20656;-75
2022/04/15 04:59:25;;;;;;;21.93;13.40;;;;;;;10.76;84.05;100129.59;4211363;28;20229;-75
2022/04/15 05:01:52;;;;;;;27.60;14.50;;;;;;;10.86;84.33;100125.03;4209050;28;20307;-77
2022/04/15 05:04:18;;;;;;;26.23;14.60;;;;;;;10.74;85.24;100132.41;4202074;28;20266;-74
2022/04/15 05:06:45;;;;;;;24.63;15.13;;;;;;;10.52;86.81;100133.72;4201583;28;20801;-73
2022/04/15 05:09:12;;;;;;;23.30;14.30;;;;;;;10.63;86.63;100132.66;4211281;28;23027;-74
2022/04/15 05:11:38;;;;;;;24.70;14.73;;;;;;;10.72;86.08;100133.56;4225938;28;20247;-75
2022/04/15 05:14:07;;;;;;;24.87;14.70;;;;;;;10.64;85.84;100120.19;4226205;28;20262;-74
2022/04/15 05:16:33;;;;;;;26.20;15.00;;;;;;;10.55;87.15;100125.44;4242538;28;21124;-73
2022/04/15 05:19:00;;;;;;;23.33;13.60;;;;;;;10.74;86.82;100128.91;4203705;28;21897;-74
2022/04/15 05:21:27;;;;;;;24.37;13.97;;;;;;;10.85;85.89;100138.50;4195719;28;20275;-74
2022/04/15 05:23:54;;;;;;;24.07;14.33;;;;;;;10.72;86.53;100139.75;4217266;28;20232;-75
2022/04/15 05:26:20;;;;;;;23.40;14.00;;;;;;;10.74;87.38;100135.06;4199481;28;20229;-72
2022/04/15 05:28:47;;;;;;;22.43;13.77;;;;;;;10.83;86.84;100140.47;4198171;28;20292;-74
2022/04/15 05:31:14;;;;;;;23.30;14.17;;;;;;;10.90;86.19;100150.34;4217227;28;20240;-75
2022/04/15 05:33:41;;;;;;;26.40;14.73;;;;;;;10.87;86.90;100155.16;4213293;28;23296;-75
2022/04/15 05:36:07;;;;;;;23.40;14.53;;;;;;;10.87;87.49;100149.84;4194091;28;23114;-75
2022/04/15 05:38:34;;;;;;;24.00;13.93;;;;;;;10.82;87.74;100152.97;4198109;28;21727;-76
2022/04/15 05:41:00;;;;;;;30.27;17.90;;;;;;;10.82;88.30;100155.63;4216475;28;20251;-75
2022/04/15 05:43:27;;;;;;;24.97;15.30;;;;;;;10.75;88.38;100152.72;4219807;28;22195;-73
2022/04/15 05:45:55;;;;;;;28.23;15.07;;;;;;;10.73;89.01;100152.03;4189904;28;20444;-73
2022/04/15 05:48:21;;;;;;;28.13;15.50;;;;;;;10.71;89.44;100153.19;4233849;28;25562;-73
2022/04/15 05:50:48;;;;;;;25.63;15.43;;;;;;;10.48;90.98;100158.94;4209395;28;20574;-74
2022/04/15 05:53:15;;;;;;;24.23;15.83;;;;;;;10.60;91.52;100164.06;4202313;28;20241;-74
2022/04/15 05:55:41;;;;;;;25.60;15.90;;;;;;;10.72;90.75;100165.50;4207192;28;20243;-77
2022/04/15 05:58:10;;;;;;;26.23;15.30;;;;;;;10.61;91.72;100169.22;4226741;28;20276;-76
2022/04/15 06:00:37;;;;;;;25.93;15.37;;;;;;;10.48;93.01;100174.91;4205486;28;21832;-76
2022/04/15 06:03:11;;;;;;;26.10;15.83;;;;;;;10.45;93.87;100180.53;4223969;28;20250;-78
2022/04/15 06:05:38;;;;;;;28.03;15.67;;;;;;;10.39;94.41;100159.84;4206893;28;20237;-77
2022/04/15 06:08:05;;;;;;;28.27;16.37;;;;;;;10.42;95.98;100174.66;4246042;28;21621;-77
2022/04/15 06:10:32;;;;;;;30.70;16.93;;;;;;;10.28;97.01;100176.00;4214079;28;20757;-75
2022/04/15 06:13:19;;;;;;;30.10;17.17;;;;;;;10.25;98.89;100174.47;4200504;28;21060;-76
2022/04/15 06:15:53;;;;;;;28.90;17.93;;;;;;;10.17;99.74;100169.06;4234705;28;21286;-76
2022/04/15 06:18:20;;;;;;;30.00;17.50;;;;;;;10.18;100.00;100160.09;4176781;28;20303;-77
2022/04/15 06:20:47;;;;;;;31.70;17.60;;;;;;;10.32;100.00;100169.41;4208315;28;20240;-77
2022/04/15 06:23:15;;;;;;;28.47;18.13;;;;;;;10.28;100.00;100176.00;4177430;28;20261;-77
2022/04/15 06:25:41;;;;;;;29.40;18.07;;;;;;;10.44;100.00;100184.19;4188132;28;20888;-81
2022/04/15 06:28:08;;;;;;;31.03;19.10;;;;;;;10.42;100.00;100187.97;4189304;28;20241;-74
2022/04/15 06:30:35;;;;;;;31.37;19.17;;;;;;;10.38;100.00;100187.44;4194998;28;20301;-75
2022/04/15 06:33:05;;;;;;;30.00;19.33;;;;;;;10.29;100.00;100188.34;4186489;28;20233;-76
2022/04/15 06:35:33;;;;;;;37.73;20.97;;;;;;;10.09;100.00;100191.09;4181373;28;20336;-76
2022/04/15 06:37:59;;;;;;;36.50;22.03;;;;;;;10.05;100.00;100195.03;4214619;28;20250;-76
2022/04/15 06:40:26;;;;;;;43.20;20.57;;;;;;;10.05;100.00;100184.38;4180892;28;26118;-79
2022/04/15 06:42:53;;;;;;;32.43;19.83;;;;;;;10.08;100.00;100192.06;4192498;28;20311;-76
2022/04/15 06:45:23;;;;;;;30.37;19.33;;;;;;;10.23;100.00;100202.19;4211158;28;20287;-76
2022/04/15 06:47:50;;;;;;;31.43;19.87;;;;;;;10.23;100.00;100194.22;4189192;28;20304;-77
2022/04/15 06:50:16;;;;;;;38.90;20.50;;;;;;;10.25;100.00;100200.22;4189400;28;20688;-75
2022/04/15 06:52:43;;;;;;;34.93;20.10;;;;;;;10.23;100.00;100197.75;4181130;28;26053;-76
2022/04/15 06:55:10;;;;;;;32.67;19.23;;;;;;;10.35;100.00;100217.03;4200300;28;21009;-76
2022/04/15 06:57:37;;;;;;;34.43;19.77;;;;;;;10.27;100.00;100204.41;4185961;28;20305;-77
2022/04/15 07:00:05;;;;;;;32.43;19.07;;;;;;;10.35;100.00;100209.88;4199053;28;23990;-77
2022/04/15 07:02:34;;;;;;;34.13;20.13;;;;;;;10.42;100.00;100214.56;4191884;28;20243;-77
2022/04/15 07:05:00;;;;;;;37.17;20.10;;;;;;;10.42;100.00;100214.56;4193305;28;20267;-76
2022/04/15 07:07:27;;;;;;;34.93;19.53;;;;;;;10.39;100.00;100218.38;4183754;28;20237;-77
2022/04/15 07:09:54;;;;;;;37.60;21.90;;;;;;;10.23;100.00;100218.16;4196832;28;20237;-77
2022/04/15 07:12:20;;;;;;;32.23;20.43;;;;;;;10.34;100.00;100218.00;4199313;28;20241;-75
2022/04/15 07:14:47;;;;;;;34.30;21.57;;;;;;;10.26;100.00;100216.03;4183782;28;20369;-73
2022/04/15 07:17:14;;;;;;;35.57;21.47;;;;;;;10.13;100.00;100216.38;4203313;28;20231;-75
2022/04/15 07:19:42;;;;;;;34.93;21.67;;;;;;;10.16;100.00;100215.28;4209675;28;21814;-74
2022/04/15 07:22:08;;;;;;;38.83;21.27;;;;;;;10.17;100.00;100210.78;4204576;28;22586;-75
2022/04/15 07:24:35;;;;;;;35.20;20.87;;;;;;;10.18;100.00;100207.97;4201810;28;26414;-74
2022/04/15 07:27:02;;;;;;;36.07;21.70;;;;;;;10.15;100.00;100209.09;4211954;28;23002;-74
2022/04/15 07:29:30;;;;;;;43.77;22.37;;;;;;;10.20;100.00;100208.66;4180319;28;20237;-77
2022/04/15 07:31:57;;;;;;;33.13;20.03;;;;;;;10.36;100.00;100218.69;4197492;28;20275;-74
2022/04/15 07:34:26;;;;;;;36.17;21.83;;;;;;;10.45;100.00;100214.28;4191240;28;20379;-76
2022/04/15 07:36:57;;;;;;;39.27;21.47;;;;;;;10.51;100.00;100211.88;4215872;28;20977;-75
2022/04/15 07:39:24;;;;;;;39.30;22.40;;;;;;;10.66;100.00;100214.03;4215199;28;22686;-77
2022/04/15 07:41:51;;;;;;;36.90;21.50;;;;;;;10.98;100.00;100211.66;4227285;28;22055;-75
2022/04/15 07:44:19;;;;;;;44.27;22.50;;;;;;;11.72;100.00;100203.34;4230220;28;21734;-74
2022/04/15 07:46:46;;;;;;;30.03;19.27;;;;;;;12.46;100.00;100209.88;4231200;28;20270;-77
2022/04/15 07:49:12;;;;;;;26.90;16.90;;;;;;;12.50;97.92;100211.19;4220947;28;21676;-75
2022/04/15 07:51:41;;;;;;;28.60;17.63;;;;;;;12.61;97.36;100207.38;4216314;28;22307;-73
2022/04/15 07:54:09;;;;;;;30.60;17.60;;;;;;;12.70;95.51;100213.59;4211299;28;25509;-75
2022/04/15 07:56:36;;;;;;;24.53;16.53;;;;;;;12.42;95.08;100214.69;4218002;28;20244;-73
2022/04/15 07:59:03;;;;;;;25.97;16.93;;;;;;;12.31;96.41;100208.81;4214592;28;21235;-76
2022/04/15 08:01:30;;;;;;;27.93;18.03;;;;;;;12.39;97.36;100211.53;4211544;28;20986;-75
2022/04/15 08:03:58;;;;;;;23.00;15.90;;;;;;;12.51;96.19;100212.88;4222891;28;20323;-73
2022/04/15 08:06:26;;;;;;;25.30;17.37;;;;;;;12.18;95.22;100215.44;4216230;28;20224;-79
2022/04/15 08:08:54;;;;;;;27.43;16.73;;;;;;;12.15;96.48;100222.91;4197714;28;20229;-76
2022/04/15 08:11:21;;;;;;;24.87;16.63;;;;;;;12.27;97.07;100215.47;4181509;28;20250;-75
2022/04/15 08:13:49;;;;;;;25.93;17.10;;;;;;;12.35;96.85;100216.31;4192661;28;20230;-79
2022/04/15 08:16:16;;;;;;;24.20;15.93;;;;;;;12.34;95.69;100216.47;4253517;28;20234;-76
2022/04/15 08:18:43;;;;;;;24.47;15.77;;;;;;;12.63;95.25;100219.56;4201599;28;20469;-76
2022/04/15 08:21:10;;;;;;;24.57;15.80;;;;;;;12.93;93.61;100222.63;4207300;28;20240;-78
2022/04/15 08:23:36;;;;;;;26.20;16.77;;;;;;;13.07;91.49;100231.81;4210726;28;22693;-77
2022/04/15 08:26:03;;;;;;;25.03;16.87;;;;;;;13.12;90.58;100236.66;4220741;28;25633;-73
2022/04/15 08:28:30;;;;;;;26.70;16.90;;;;;;;13.01;89.88;100227.97;4177661;28;22367;-75
2022/04/15 08:30:57;;;;;;;24.83;16.07;;;;;;;12.77;90.35;100233.28;4214466;28;20527;-75
2022/04/15 08:33:24;;;;;;;28.13;17.77;;;;;;;12.44;93.17;100234.03;4203115;28;25818;-75
2022/04/15 08:35:50;;;;;;;28.13;18.30;;;;;;;12.60;93.51;100232.44;4207724;28;20923;-75
2022/04/15 08:38:18;;;;;;;29.47;18.50;;;;;;;12.55;93.53;100232.91;4180685;28;20240;-75
2022/04/15 08:40:55;;;;;;;28.20;18.30;;;;;;;12.55;93.62;100238.25;4204101;28;21618;-75
2022/04/15 08:43:24;;;;;;;31.17;19.57;;;;;;;12.66;92.51;100237.09;4221162;28;20234;-76
2022/04/15 08:45:50;;;;;;;32.57;19.27;;;;;;;12.59;92.38;100233.41;4203486;28;20659;-74
2022/04/15 08:48:17;;;;;;;30.57;20.03;;;;;;;12.60;91.51;100233.25;4226958;28;20279;-73
2022/04/15 08:50:44;;;;;;;36.93;22.20;;;;;;;12.35;92.42;100239.50;4213748;28;20240;-76
2022/04/15 08:53:11;;;;;;;39.73;23.00;;;;;;;11.94;95.41;100242.84;4187217;28;25828;-79
2022/04/15 08:55:38;;;;;;;38.93;23.43;;;;;;;12.06;94.69;100243.41;4199709;28;20297;-74
2022/04/15 08:58:06;;;;;;;39.07;23.30;;;;;;;12.20;93.56;100242.81;4213640;28;20245;-76
2022/04/15 09:00:33;;;;;;;40.23;24.00;;;;;;;12.29;94.23;100240.16;4212618;28;20240;-77
2022/04/15 09:03:00;;;;;;;38.60;23.77;;;;;;;12.35;93.03;100244.84;4223598;28;20349;-78
2022/04/15 09:05:31;;;;;;;42.53;24.70;;;;;;;12.18;93.09;100247.44;4194915;28;20373;-76
2022/04/15 09:08:02;;;;;;;37.23;20.50;;;;;;;12.23;91.95;100253.13;4228253;28;20350;-76
2022/04/15 09:10:30;;;;;;;38.07;21.13;;;;;;;12.27;90.88;100247.47;4227819;28;20233;-77
2022/04/15 09:12:56;;;;;;;34.90;21.53;;;;;;;12.14;93.00;100245.25;4215835;28;20233;-77
2022/04/15 09:15:23;;;;;;;38.97;20.77;;;;;;;12.04;94.09;100240.88;4202201;28;20878;-76
2022/04/15 09:17:51;;;;;;;31.93;18.60;;;;;;;12.12;91.88;100239.25;4197148;28;20226;-78
2022/04/15 09:20:19;;;;;;;26.83;16.53;;;;;;;12.24;89.82;100241.50;4189793;28;20367;-76
2022/04/15 09:22:47;;;;;;;27.17;16.13;;;;;;;12.42;88.54;100245.88;4170859;28;22375;-76
2022/04/15 09:25:13;;;;;;;25.40;15.73;;;;;;;12.53;87.13;100242.09;4192267;28;20244;-75
2022/04/15 09:27:41;;;;;;;26.77;16.63;;;;;;;12.54;87.35;100249.91;4222153;28;20229;-74
2022/04/15 09:30:08;;;;;;;24.00;14.30;;;;;;;12.61;86.37;100245.59;4183276;28;20341;-75
2022/04/15 09:32:34;;;;;;;23.97;12.80;;;;;;;12.64;86.65;100247.09;4206242;28;20577;-74
2022/04/15 09:35:04;;;;;;;21.63;13.47;;;;;;;12.79;85.57;100244.66;4217744;28;20235;-73
2022/04/15 09:37:44;;;;;;;23.50;14.17;;;;;;;12.92;85.04;100244.16;4243791;28;21849;-77
2022/04/15 09:40:15;;;;;;;17.10;11.37;;;;;;;12.81;83.97;100245.31;4209930;28;25654;-75
2022/04/15 09:42:47;;;;;;;16.47;10.33;;;;;;;12.88;82.73;100246.34;4211333;28;20241;-75
2022/04/15 09:45:17;;;;;;;13.67;9.17;;;;;;;12.82;81.55;100244.31;4216207;28;21758;-75
2022/04/15 09:48:05;;;;;;;15.27;9.73;;;;;;;12.66;80.69;100240.59;4195280;28;20240;-75
2022/04/15 09:50:34;;;;;;;14.17;8.93;;;;;;;12.45;81.84;100240.22;4220779;28;20402;-74
2022/04/15 09:53:15;;;;;;;13.90;9.27;;;;;;;12.42;83.53;100246.72;4221181;28;25674;-75
2022/04/15 09:55:47;;;;;;;16.80;10.23;;;;;;;12.23;84.48;100252.31;4204574;28;20306;-77
2022/04/15 09:58:15;;;;;;;16.27;10.57;;;;;;;12.30;84.35;100245.34;4199203;28;21823;-75
2022/04/15 10:00:45;;;;;;;19.37;10.53;;;;;;;12.26;85.92;100246.66;4206068;28;20357;-74
2022/04/15 10:03:18;;;;;;;22.67;12.73;;;;;;;11.83;88.43;100251.91;4217214;28;22942;-74
2022/04/15 10:05:45;;;;;;;22.90;13.43;;;;;;;11.96;87.31;100253.34;4205837;28;20895;-77
2022/04/15 10:08:11;;;;;;;24.43;14.43;;;;;;;11.87;87.10;100251.59;4222889;28;23933;-73
2022/04/15 10:10:38;;;;;;;26.23;14.47;;;;;;;11.77;88.51;100255.19;4188126;28;20460;-75
2022/04/15 10:13:06;;;;;;;24.27;13.97;;;;;;;11.80;88.10;100246.91;4220336;28;20237;-76
2022/04/15 10:15:37;;;;;;;24.07;14.67;;;;;;;11.65;89.30;100261.78;4227043;28;20364;-77
2022/04/15 10:18:04;;;;;;;31.90;17.13;;;;;;;11.47;91.26;100255.66;4217848;28;20232;-73
2022/04/15 10:20:32;;;;;;;29.97;16.27;;;;;;;11.62;91.01;100264.75;4209849;28;20240;-75
2022/04/15 10:23:09;;;;;;;28.03;15.43;;;;;;;11.73;89.39;100256.53;4220046;28;20259;-75
2022/04/15 10:25:37;;;;;;;28.80;16.27;;;;;;;11.81;89.50;100259.22;4209854;28;20617;-74
2022/04/15 10:28:37;;;;;;;29.03;16.07;;;;;;;11.88;89.55;100262.13;4205683;28;20236;-77
2022/04/15 10:31:14;;;;;;;30.23;17.10;;;;;;;12.03;88.22;100263.22;4219205;28;23093;-75
2022/04/15 10:33:41;;;;;;;30.00;17.23;;;;;;;11.96;89.19;100262.19;4189006;28;22049;-75
2022/04/15 10:36:15;;;;;;;29.90;17.47;;;;;;;11.84;89.62;100261.56;4225399;28;20336;-76
2022/04/15 10:39:03;;;;;;;29.87;17.40;;;;;;;11.97;89.62;100260.34;4210039;28;20939;-74
2022/04/15 10:41:42;;;;;;;32.60;17.40;;;;;;;12.14;89.15;100259.44;4212881;28;20245;-78
2022/04/15 10:44:26;;;;;;;27.67;16.53;;;;;;;12.24;87.86;100253.97;4228292;28;20228;-77
2022/04/15 10:46:59;;;;;;;31.77;17.70;;;;;;;12.30;87.48;100247.16;4245654;28;20762;-73
2022/04/15 10:49:30;;;;;;;28.53;16.70;;;;;;;12.36;89.25;100251.84;4241187;28;20242;-77
2022/04/15 10:51:59;;;;;;;30.53;17.43;;;;;;;12.60;87.97;100254.63;4232499;28;21252;-73
2022/04/15 10:54:35;;;;;;;27.33;16.37;;;;;;;12.91;85.56;100255.84;4203939;28;20631;-76
2022/04/15 10:57:22;;;;;;;26.90;15.77;;;;;;;13.25;83.37;100248.53;4224956;28;25583;-75
2022/04/15 11:02:46;;;;;;;27.53;15.83;;;;;;;14.02;81.01;100244.59;4249538;28;21342;-75
2022/04/15 11:05:43;;;;;;;26.83;15.37;;;;;;;14.34;76.24;100241.78;4262432;28;20512;-74
2022/04/15 11:08:14;;;;;;;25.97;15.80;;;;;;;14.05;77.32;100244.25;4199380;28;23501;-75
2022/04/15 11:10:57;;;;;;;25.10;15.07;;;;;;;13.85;76.78;100239.28;4210804;28;20771;-72
2022/04/15 11:13:32;;;;;;;28.27;15.03;;;;;;;14.12;77.32;100243.41;4260277;28;20319;-73
2022/04/15 11:15:59;;;;;;;29.43;15.13;;;;;;;14.48;76.56;100240.22;4211587;28;20232;-75
2022/04/15 11:18:50;;;;;;;25.20;15.07;;;;;;;14.44;75.19;100238.06;4228976;28;20282;-74